Terminal Aerodrome Forecast
Issued by NWS

Home | Current Version | Previous Version | Text Only | Print | Product List | Glossary On
Versions: 1 2 3 4 5 6 7 8 9 10 11 12 13 14 15 16 17 18 19 20 21 22 23 24 25
000
FTUS42 KTAE 140500
TAFECP
TAF
KECP 140520Z 1406/1506 00000KT P6SM SCT002
     FM141500 VRB03KT P6SM SCT025
     FM141700 24010KT P6SM VCTS SCT030CB
     FM142300 24005KT P6SM FEW030=

USA.gov is the U.S. government's official web portal to all federal, state and local government web resources and services.